Time;durP1;ratioP1;P1;durP2;ratioP2;P2;SDS_P1;SDS_P2;PMS_P1;PMS_P2;Temp;Humidity;BMP_temperature;BMP_pressure;BME280_temperature;BME280_humidity;BME280_pressure;Samples;Min_cycle;Max_cycle;Signal;HPM_P1;HPM_P2
2021/01/08 00:01:10;;;;;;;1.65;1.55;;;;;;;1.89;97.78;98796.39;1735843;82;21139;-75
2021/01/08 00:03:41;;;;;;;1.50;1.40;;;;;;;1.90;97.84;98820.05;1735962;82;21180;-78
2021/01/08 00:06:09;;;;;;;1.92;1.70;;;;;;;1.91;97.90;98799.66;1735950;82;21121;-77
2021/01/08 00:08:37;;;;;;;1.57;1.47;;;;;;;1.94;97.88;98804.00;1735375;82;21111;-78
2021/01/08 00:11:06;;;;;;;2.05;1.95;;;;;;;1.95;97.14;98810.94;1734111;81;22360;-80
2021/01/08 00:13:34;;;;;;;1.70;1.60;;;;;;;1.95;96.79;98807.47;1732829;82;21169;-74
2021/01/08 00:16:02;;;;;;;2.15;1.90;;;;;;;1.94;96.65;98809.30;1732874;82;21598;-75
2021/01/08 00:18:30;;;;;;;1.47;1.35;;;;;;;1.91;95.66;98823.00;1733837;81;21163;-81
2021/01/08 00:20:58;;;;;;;1.70;1.40;;;;;;;1.94;95.75;98822.56;1732783;82;21220;-77
2021/01/08 00:23:26;;;;;;;1.62;1.52;;;;;;;1.97;95.61;98838.03;1728609;82;21370;-79
2021/01/08 00:25:55;;;;;;;2.20;1.98;;;;;;;1.93;95.47;98834.19;1721818;83;21189;-76
2021/01/08 00:28:22;;;;;;;2.40;2.12;;;;;;;1.93;95.26;98853.26;1733491;81;21148;-75
2021/01/08 00:30:49;;;;;;;1.50;1.40;;;;;;;1.94;95.22;98825.73;1755850;81;22284;-75
2021/01/08 00:33:17;;;;;;;1.77;1.67;;;;;;;1.97;95.30;98834.56;1755852;81;21165;-74
2021/01/08 00:35:45;;;;;;;1.60;1.50;;;;;;;2.00;95.27;98832.83;1755931;81;22536;-74
2021/01/08 00:38:13;;;;;;;1.80;1.70;;;;;;;1.99;94.83;98855.88;1756300;81;21129;-80
2021/01/08 00:40:40;;;;;;;1.15;1.10;;;;;;;1.96;94.63;98847.03;1750093;81;21543;-79
2021/01/08 00:43:08;;;;;;;2.10;1.72;;;;;;;1.95;94.41;98849.89;1743904;81;21634;-78
2021/01/08 00:45:36;;;;;;;2.33;2.12;;;;;;;1.94;94.64;98838.98;1723262;81;21185;-80
2021/01/08 00:48:05;;;;;;;1.50;1.40;;;;;;;1.93;94.21;98856.72;1720411;81;21933;-74
2021/01/08 00:50:32;;;;;;;1.50;1.40;;;;;;;1.96;94.36;98839.08;1712346;81;21194;-70
2021/01/08 00:53:00;;;;;;;1.62;1.52;;;;;;;1.97;94.28;98867.20;1713222;82;21623;-73
2021/01/08 00:55:27;;;;;;;1.45;1.37;;;;;;;1.94;94.15;98855.70;1721845;83;21015;-76
2021/01/08 00:57:56;;;;;;;1.52;1.42;;;;;;;1.96;94.29;98844.89;1715752;83;21608;-71
2021/01/08 01:00:25;;;;;;;1.20;1.20;;;;;;;1.95;94.25;98837.96;1712962;82;21206;-75
2021/01/08 01:02:53;;;;;;;1.60;1.50;;;;;;;1.99;94.27;98847.11;1715809;81;21678;-74
2021/01/08 01:05:21;;;;;;;2.52;1.35;;;;;;;1.98;94.24;98870.16;1731886;82;21145;-73
2021/01/08 01:07:49;;;;;;;2.77;1.90;;;;;;;1.96;93.87;98888.13;1723778;83;21196;-74
2021/01/08 01:10:16;;;;;;;1.60;1.50;;;;;;;1.94;93.68;98855.70;1731102;82;21136;-74
2021/01/08 01:12:44;;;;;;;1.40;1.30;;;;;;;1.96;93.70;98891.30;1702268;84;21223;-74
2021/01/08 01:15:14;;;;;;;2.17;1.95;;;;;;;1.94;93.47;98860.19;1727673;83;21152;-75
2021/01/08 01:17:42;;;;;;;1.90;1.80;;;;;;;1.94;93.54;98841.63;1707096;84;21140;-76
2021/01/08 01:20:12;;;;;;;1.52;1.42;;;;;;;1.93;93.64;98886.40;1742144;82;21562;-79
2021/01/08 01:22:39;;;;;;;1.52;1.42;;;;;;;1.93;93.62;98858.05;1755431;81;21599;-75
2021/01/08 01:25:09;;;;;;;1.42;1.32;;;;;;;1.96;93.52;98850.20;1735317;81;23063;-73
2021/01/08 01:27:38;;;;;;;1.60;1.50;;;;;;;1.99;93.36;98876.27;1734745;81;21160;-75
2021/01/08 01:30:09;;;;;;;1.20;1.20;;;;;;;1.95;92.91;98918.31;1734482;82;21140;-75
2021/01/08 01:32:36;;;;;;;1.75;1.65;;;;;;;1.93;92.75;98887.73;1734759;82;21031;-76
2021/01/08 01:35:06;;;;;;;2.50;1.47;;;;;;;1.95;92.90;98858.66;1734425;81;21125;-74
2021/01/08 01:37:34;;;;;;;4.58;1.47;;;;;;;1.96;92.85;98872.73;1732941;82;21389;-83
2021/01/08 01:40:01;;;;;;;2.02;1.62;;;;;;;1.95;92.57;98866.62;1735002;81;21121;-82
2021/01/08 01:42:29;;;;;;;1.55;1.45;;;;;;;1.95;92.21;98863.15;1732295;82;21439;-82
2021/01/08 01:44:58;;;;;;;2.45;1.27;;;;;;;1.93;91.75;98891.70;1730665;82;21116;-86
2021/01/08 01:47:27;;;;;;;1.32;1.20;;;;;;;1.94;91.50;98881.41;1730597;82;21125;-79
2021/01/08 01:49:54;;;;;;;1.50;1.40;;;;;;;1.95;91.59;98908.22;1730987;82;21213;-79
2021/01/08 01:52:22;;;;;;;1.27;1.20;;;;;;;1.98;91.52;98886.58;1730547;82;21205;-79
2021/01/08 01:54:50;;;;;;;1.25;1.15;;;;;;;2.00;91.37;98915.03;1738457;81;21168;-81
2021/01/08 01:57:17;;;;;;;1.50;1.40;;;;;;;2.01;91.24;98906.05;1753585;81;21228;-84
2021/01/08 01:59:45;;;;;;;1.47;1.37;;;;;;;1.99;91.20;98896.97;1723130;82;21159;-76
2021/01/08 02:02:18;;;;;;;1.30;1.20;;;;;;;1.95;90.90;98897.11;1715538;83;21393;-78
2021/01/08 02:04:47;;;;;;;2.22;1.62;;;;;;;1.95;90.87;98909.04;1703290;83;21101;-82
2021/01/08 02:07:15;;;;;;;1.90;1.80;;;;;;;1.96;90.97;98914.65;1712933;83;21093;-83
2021/01/08 02:09:42;;;;;;;1.35;1.25;;;;;;;1.96;90.47;98899.25;1712282;83;21129;-85
2021/01/08 02:12:11;;;;;;;1.57;1.40;;;;;;;1.95;90.74;98946.67;1712314;83;21172;-85
2021/01/08 02:14:41;;;;;;;1.40;1.30;;;;;;;1.93;90.70;98925.66;1763404;81;21457;-79
2021/01/08 02:17:08;;;;;;;1.35;1.27;;;;;;;1.97;90.89;98918.08;1733077;81;21208;-77
2021/01/08 02:19:51;;;;;;;1.70;1.60;;;;;;;2.01;90.53;98925.43;1751083;81;21161;-75
2021/01/08 02:22:32;;;;;;;1.60;1.50;;;;;;;1.98;89.93;98941.74;1764521;81;21642;-76
2021/01/08 02:25:13;;;;;;;1.57;1.40;;;;;;;1.95;89.36;98989.09;1710340;81;21601;-77
2021/01/08 02:27:43;;;;;;;1.42;1.37;;;;;;;1.95;89.27;98924.13;1709782;83;22110;-77
2021/01/08 02:30:12;;;;;;;1.85;1.40;;;;;;;1.96;89.34;98924.44;1686677;83;21217;-77
2021/01/08 02:32:39;;;;;;;1.42;1.32;;;;;;;1.97;89.31;98935.31;1713152;83;21023;-76
2021/01/08 02:35:09;;;;;;;2.00;1.80;;;;;;;1.98;89.42;98920.53;1721779;82;21145;-75
2021/01/08 02:37:42;;;;;;;1.02;1.02;;;;;;;1.98;89.40;98922.37;1721246;82;21142;-74
2021/01/08 02:40:13;;;;;;;1.00;1.00;;;;;;;1.96;89.44;98913.32;1714891;82;21378;-80
2021/01/08 02:42:42;;;;;;;1.17;1.10;;;;;;;1.97;89.54;98914.92;1712537;82;21199;-79
2021/01/08 02:45:11;;;;;;;1.42;1.32;;;;;;;2.00;89.76;98926.95;1721532;83;21218;-80
2021/01/08 02:47:39;;;;;;;1.40;1.30;;;;;;;2.01;89.49;98929.41;1691215;83;21148;-79
2021/01/08 02:50:08;;;;;;;1.50;1.40;;;;;;;1.99;89.24;98968.57;1726047;83;20994;-79
2021/01/08 02:52:39;;;;;;;2.30;1.80;;;;;;;2.00;89.24;98940.22;1732422;81;21598;-79
2021/01/08 02:55:09;;;;;;;1.23;1.13;;;;;;;2.00;89.34;98943.69;1734830;81;21153;-80
2021/01/08 02:57:37;;;;;;;1.65;1.55;;;;;;;2.02;89.31;98943.45;1732301;82;21540;-79
2021/01/08 03:00:06;;;;;;;1.67;1.57;;;;;;;2.06;89.45;99001.69;1722843;82;21176;-78
2021/01/08 03:02:33;;;;;;;1.22;1.20;;;;;;;2.08;89.04;98963.82;1722452;81;21131;-79
2021/01/08 03:05:01;;;;;;;1.37;1.30;;;;;;;2.08;89.03;98950.56;1721976;83;21285;-80
2021/01/08 03:07:28;;;;;;;1.40;1.30;;;;;;;2.06;89.18;98982.59;1695481;83;21599;-81
2021/01/08 03:09:55;;;;;;;1.70;1.60;;;;;;;2.07;89.31;98943.11;1721157;83;20983;-81
2021/01/08 03:12:23;;;;;;;2.98;1.67;;;;;;;2.10;89.48;98967.91;1735353;81;21164;-80
2021/01/08 03:14:50;;;;;;;1.65;1.52;;;;;;;2.10;89.51;98955.97;1706954;81;21177;-78
2021/01/08 03:17:18;;;;;;;1.52;1.42;;;;;;;2.12;89.73;98979.61;1735350;81;21821;-79
2021/01/08 03:19:45;;;;;;;1.22;1.12;;;;;;;2.11;90.02;98983.31;1730399;82;21010;-79
2021/01/08 03:22:13;;;;;;;1.02;0.95;;;;;;;2.09;90.42;98970.76;1707234;84;21515;-80
2021/01/08 03:24:41;;;;;;;1.32;1.20;;;;;;;2.08;90.77;98972.59;1716492;82;21094;-79
2021/01/08 03:27:09;;;;;;;1.50;1.40;;;;;;;2.08;91.04;98980.55;1726300;83;21153;-79
2021/01/08 03:29:36;;;;;;;1.52;1.42;;;;;;;2.08;91.37;98972.59;1725097;83;22179;-80
2021/01/08 03:32:04;;;;;;;1.70;1.60;;;;;;;2.09;91.66;98970.76;1712664;83;21157;-81
2021/01/08 03:34:32;;;;;;;4.10;1.32;;;;;;;2.08;91.81;98989.02;1761950;81;21618;-80
2021/01/08 03:36:59;;;;;;;2.05;1.52;;;;;;;2.06;91.98;98993.20;1753662;81;21208;-80
2021/01/08 03:39:26;;;;;;;1.70;1.60;;;;;;;2.07;92.23;98984.22;1731010;81;21168;-79
2021/01/08 03:41:55;;;;;;;2.33;2.12;;;;;;;2.07;92.13;99001.97;1713139;83;21390;-78
2021/01/08 03:44:22;;;;;;;1.87;1.77;;;;;;;2.07;92.20;98991.36;1713251;83;21625;-81
2021/01/08 03:46:50;;;;;;;1.80;1.65;;;;;;;2.05;92.20;98980.98;1713166;83;21053;-80
2021/01/08 03:49:17;;;;;;;1.65;1.55;;;;;;;2.06;92.30;98996.39;1713299;83;21685;-81
2021/01/08 03:51:44;;;;;;;1.95;1.77;;;;;;;2.06;92.43;99002.48;1714354;83;21163;-79
2021/01/08 03:54:12;;;;;;;2.45;2.00;;;;;;;2.11;92.46;99003.98;1725655;83;21606;-80
2021/01/08 03:56:39;;;;;;;2.25;1.90;;;;;;;2.14;92.42;99022.14;1725574;83;21164;-80
2021/01/08 03:59:06;;;;;;;1.98;1.87;;;;;;;2.14;92.21;99016.84;1724190;83;21132;-79
2021/01/08 04:01:34;;;;;;;1.77;1.67;;;;;;;2.14;92.17;99011.54;1722948;82;21093;-78
2021/01/08 04:04:01;;;;;;;2.08;1.87;;;;;;;2.14;92.21;99015.52;1791870;79;21581;-78
2021/01/08 04:06:28;;;;;;;2.08;1.87;;;;;;;2.16;92.10;99013.95;1791809;80;21184;-78
2021/01/08 04:08:57;;;;;;;2.47;2.22;;;;;;;2.18;92.01;99019.88;1768833;80;21728;-78
2021/01/08 04:11:24;;;;;;;2.30;2.10;;;;;;;2.18;91.62;99030.48;1761074;79;21117;-78
2021/01/08 04:13:51;;;;;;;2.70;2.50;;;;;;;2.19;91.55;99012.23;1783844;79;21566;-80
2021/01/08 04:16:19;;;;;;;1.95;1.85;;;;;;;2.17;91.11;99042.11;1796874;79;21136;-79
2021/01/08 04:18:47;;;;;;;2.12;2.00;;;;;;;2.22;90.86;99038.83;1796933;79;21372;-78
2021/01/08 04:21:15;;;;;;;2.60;2.40;;;;;;;2.23;90.52;99031.98;1768007;79;21188;-78
2021/01/08 04:23:42;;;;;;;2.52;2.30;;;;;;;2.28;90.38;99018.09;1774231;80;21136;-79
2021/01/08 04:26:10;;;;;;;2.50;2.30;;;;;;;2.33;90.19;99035.00;1793414;80;21119;-79
2021/01/08 04:28:37;;;;;;;2.62;2.42;;;;;;;2.37;89.93;99016.80;1785691;79;21577;-79
2021/01/08 04:31:05;;;;;;;1.95;1.85;;;;;;;2.39;89.66;99036.81;1777810;80;21197;-78
2021/01/08 04:33:32;;;;;;;2.25;2.05;;;;;;;2.42;89.46;99046.98;1784630;80;21665;-79
2021/01/08 04:36:00;;;;;;;2.47;2.27;;;;;;;2.44;89.15;99047.60;1788642;79;21128;-71
2021/01/08 04:38:27;;;;;;;2.70;2.50;;;;;;;2.47;89.06;99094.11;1765764;80;21141;-76
2021/01/08 04:40:54;;;;;;;2.98;2.72;;;;;;;2.50;88.87;99060.50;1765917;81;21105;-76
2021/01/08 04:43:22;;;;;;;3.60;3.30;;;;;;;2.53;88.91;99055.61;1765721;80;21197;-76
2021/01/08 04:45:49;;;;;;;2.12;1.92;;;;;;;2.54;88.86;99043.16;1751739;81;21053;-75
2021/01/08 04:48:16;;;;;;;3.65;3.35;;;;;;;2.56;88.92;99057.00;1766905;81;21125;-75
2021/01/08 04:50:44;;;;;;;2.77;2.58;;;;;;;2.57;89.07;99052.00;1767295;81;22251;-75
2021/01/08 04:53:11;;;;;;;3.47;2.90;;;;;;;2.61;89.06;99070.45;1754036;80;21043;-75
2021/01/08 04:55:39;;;;;;;3.60;3.08;;;;;;;2.62;89.11;99047.69;1751939;81;21326;-75
2021/01/08 04:58:07;;;;;;;3.65;3.10;;;;;;;2.62;88.94;99051.67;1766895;81;21015;-75
2021/01/08 05:00:35;;;;;;;2.58;2.37;;;;;;;2.62;89.02;99054.83;1769007;80;21112;-74
2021/01/08 05:03:02;;;;;;;3.25;3.02;;;;;;;2.60;89.16;99052.38;1765189;80;21196;-75
2021/01/08 05:05:30;;;;;;;3.58;3.20;;;;;;;2.62;89.22;99061.47;1764426;81;21104;-78
2021/01/08 05:07:58;;;;;;;3.83;3.05;;;;;;;2.63;89.17;99077.70;1764432;81;21399;-84
2021/01/08 05:10:26;;;;;;;3.45;3.15;;;;;;;2.63;89.17;99081.17;1766664;80;21176;-74
2021/01/08 05:12:54;;;;;;;4.17;3.77;;;;;;;2.64;88.94;99074.81;1779291;79;21161;-74
2021/01/08 05:15:24;;;;;;;3.50;3.05;;;;;;;2.66;89.04;99081.75;1782084;79;21579;-76
2021/01/08 05:17:51;;;;;;;2.92;2.62;;;;;;;2.66;88.87;99092.38;1780924;80;21105;-75
2021/01/08 05:20:19;;;;;;;3.80;3.47;;;;;;;2.69;88.91;99082.64;1767585;80;21292;-75
2021/01/08 05:22:47;;;;;;;3.72;3.22;;;;;;;2.70;88.99;99105.52;1727161;81;20991;-74
2021/01/08 05:25:15;;;;;;;4.53;3.42;;;;;;;2.72;89.02;99116.75;1726226;81;21161;-74
2021/01/08 05:27:42;;;;;;;3.87;3.15;;;;;;;2.72;89.05;99098.98;1746819;81;21563;-76
2021/01/08 05:30:24;;;;;;;3.80;3.47;;;;;;;2.73;89.11;99086.02;1765824;80;21047;-76
2021/01/08 05:32:59;;;;;;;4.10;3.55;;;;;;;2.73;89.17;99091.33;1792619;79;21113;-77
2021/01/08 05:35:28;;;;;;;4.87;3.85;;;;;;;2.77;89.36;99089.05;1798715;79;21010;-76
2021/01/08 05:37:56;;;;;;;7.08;4.80;;;;;;;2.75;89.26;99090.58;1790854;79;21527;-78
2021/01/08 05:40:27;;;;;;;4.17;3.52;;;;;;;2.77;89.40;99080.57;1761394;81;21199;-78
2021/01/08 05:42:57;;;;;;;4.70;4.30;;;;;;;2.78;89.50;99082.17;1760551;81;21124;-76
2021/01/08 05:45:26;;;;;;;4.05;3.65;;;;;;;2.80;89.57;99091.27;1760991;81;21350;-76
2021/01/08 05:47:59;;;;;;;4.85;3.62;;;;;;;2.80;89.38;99097.39;1761305;81;21152;-77
2021/01/08 05:50:28;;;;;;;4.17;3.75;;;;;;;2.82;89.46;99125.06;1761600;81;21141;-77
2021/01/08 05:53:08;;;;;;;4.83;4.15;;;;;;;2.83;89.42;99097.49;1790843;79;21179;-77
2021/01/08 05:55:39;;;;;;;4.65;4.20;;;;;;;2.82;89.32;99115.77;1786685;79;21158;-76
2021/01/08 05:58:21;;;;;;;6.10;4.08;;;;;;;2.84;89.45;99118.50;1760177;80;22137;-77
2021/01/08 06:01:03;;;;;;;5.17;3.58;;;;;;;2.87;89.50;99117.27;1758977;81;21128;-76
2021/01/08 06:03:35;;;;;;;5.40;3.77;;;;;;;2.93;89.50;99141.63;1759073;81;21120;-77
2021/01/08 06:06:02;;;;;;;4.65;4.00;;;;;;;2.96;89.16;99129.27;1734214;81;21176;-77
2021/01/08 06:08:34;;;;;;;7.20;5.22;;;;;;;2.97;89.08;99142.85;1761433;81;21144;-75
2021/01/08 06:11:02;;;;;;;4.75;4.05;;;;;;;2.98;89.12;99146.60;1764974;79;21383;-77
2021/01/08 06:13:34;;;;;;;6.37;4.72;;;;;;;2.99;88.92;99156.20;1798967;79;21161;-76
2021/01/08 06:16:03;;;;;;;6.45;5.03;;;;;;;3.00;88.81;99153.85;1788380;79;21142;-77
2021/01/08 06:18:37;;;;;;;6.53;4.92;;;;;;;3.02;88.82;99163.73;1780109;80;20983;-77
2021/01/08 06:21:07;;;;;;;5.05;4.50;;;;;;;3.03;88.50;99162.71;1786343;79;21129;-77
2021/01/08 06:23:43;;;;;;;6.42;4.67;;;;;;;3.02;88.37;99177.02;1763664;81;21559;-76
2021/01/08 06:26:18;;;;;;;8.68;5.45;;;;;;;3.00;88.15;99200.84;1764043;81;21094;-76
2021/01/08 06:28:47;;;;;;;7.97;4.45;;;;;;;3.01;88.40;99218.42;1764763;81;21125;-75
2021/01/08 06:31:36;;;;;;;6.55;5.10;;;;;;;3.03;88.23;99194.59;1764704;81;21578;-77
2021/01/08 06:34:05;;;;;;;6.92;5.37;;;;;;;3.03;88.08;99186.62;1764628;80;21112;-76
2021/01/08 06:36:33;;;;;;;7.20;4.65;;;;;;;3.03;87.80;99181.30;1764812;81;22227;-76
2021/01/08 06:39:06;;;;;;;6.47;4.95;;;;;;;3.03;87.86;99189.78;1765941;80;21033;-76
2021/01/08 06:41:33;;;;;;;8.23;6.53;;;;;;;3.02;87.71;99201.46;1776031;80;21022;-76
2021/01/08 06:44:05;;;;;;;7.60;5.90;;;;;;;3.05;87.83;99222.27;1785143;80;20990;-76
2021/01/08 06:46:37;;;;;;;7.37;6.25;;;;;;;3.06;87.70;99201.33;1794615;80;21609;-76
2021/01/08 06:49:09;;;;;;;;;;;;;;;3.06;87.43;99196.84;1797672;80;22265;-76
2021/01/08 06:51:38;;;;;;;9.65;5.90;;;;;;;3.05;87.42;99208.48;1759296;81;20155;-75
2021/01/08 06:54:11;;;;;;;12.28;6.70;;;;;;;3.03;87.48;99219.82;1743280;82;21583;-77
2021/01/08 06:56:41;;;;;;;10.88;7.92;;;;;;;3.01;87.52;99231.19;1716730;83;21197;-77
2021/01/08 06:59:13;;;;;;;9.75;6.67;;;;;;;3.00;87.41;99245.49;1729315;82;21187;-75
2021/01/08 07:02:15;;;;;;;11.78;7.90;;;;;;;3.01;87.40;99241.00;1700945;84;21153;-75
2021/01/08 07:04:43;;;;;;;11.00;7.33;;;;;;;3.03;87.48;99247.72;1726449;83;21129;-76
2021/01/08 07:07:22;;;;;;;9.28;7.12;;;;;;;3.06;87.52;99247.82;1732719;82;21145;-77
2021/01/08 07:09:50;;;;;;;10.08;7.97;;;;;;;3.01;87.34;99239.67;1732720;82;21145;-76
2021/01/08 07:12:26;;;;;;;16.45;9.95;;;;;;;3.03;87.52;99258.84;1701875;84;21216;-76
2021/01/08 07:14:54;;;;;;;12.55;7.70;;;;;;;3.02;87.18;99239.44;1718194;82;21275;-77
2021/01/08 07:17:32;;;;;;;11.50;7.47;;;;;;;3.05;87.29;99252.31;1732327;82;33005;-75
2021/01/08 07:20:01;;;;;;;12.43;8.60;;;;;;;3.08;87.22;99248.41;1734132;82;21126;-76
2021/01/08 07:22:40;;;;;;;12.50;7.80;;;;;;;3.06;86.81;99258.45;1733922;81;21126;-76
2021/01/08 07:25:12;;;;;;;13.20;9.70;;;;;;;2.99;86.86;99253.16;1718770;81;21180;-75
2021/01/08 07:27:42;;;;;;;11.95;9.50;;;;;;;3.00;87.01;99265.41;1717554;82;21605;-76
2021/01/08 07:30:11;;;;;;;14.85;8.53;;;;;;;3.04;87.21;99255.98;1734083;82;21156;-74
2021/01/08 07:32:43;;;;;;;14.23;8.65;;;;;;;3.10;86.94;99261.48;1703552;82;21173;-76
2021/01/08 07:35:26;;;;;;;14.50;10.88;;;;;;;3.11;86.83;99257.30;1710148;83;21212;-75
2021/01/08 07:38:02;;;;;;;14.93;10.25;;;;;;;3.13;86.69;99258.39;1710223;83;21148;-73
2021/01/08 07:40:36;;;;;;;12.88;9.28;;;;;;;3.16;86.79;99265.95;1710315;83;21409;-76
2021/01/08 07:43:11;;;;;;;11.53;8.80;;;;;;;3.18;86.67;99261.23;1709700;83;21152;-75
2021/01/08 07:45:59;;;;;;;14.35;9.73;;;;;;;3.21;86.57;99266.95;1710497;83;21133;-76
2021/01/08 07:48:36;;;;;;;13.15;9.08;;;;;;;3.23;86.05;99295.44;1728752;83;21134;-78
2021/01/08 07:51:10;;;;;;;18.20;11.55;;;;;;;3.20;85.73;99283.92;1713244;83;21584;-76
2021/01/08 07:53:46;;;;;;;18.92;11.03;;;;;;;3.19;85.78;99280.95;1732313;82;21220;-76
2021/01/08 07:56:24;;;;;;;12.88;9.95;;;;;;;3.16;85.73;99285.37;1720328;82;21645;-73
2021/01/08 07:59:05;;;;;;;15.80;9.45;;;;;;;3.13;85.59;99298.25;1713055;83;21168;-75
2021/01/08 08:01:36;;;;;;;16.73;11.38;;;;;;;3.13;85.93;99305.70;1697451;83;21235;-75
2021/01/08 08:04:07;;;;;;;15.60;9.88;;;;;;;3.17;85.89;99306.09;1713322;83;21188;-75
2021/01/08 08:06:39;;;;;;;14.38;9.73;;;;;;;3.20;85.87;99305.17;1713239;83;21385;-75
2021/01/08 08:09:10;;;;;;;14.65;9.50;;;;;;;3.19;85.70;99320.81;1713179;83;21140;-76
2021/01/08 08:11:37;;;;;;;17.05;11.03;;;;;;;3.15;85.68;99326.25;1713221;83;20990;-77
2021/01/08 08:14:06;;;;;;;15.20;10.95;;;;;;;3.10;85.59;99318.09;1712999;83;21168;-76
2021/01/08 08:16:38;;;;;;;15.25;9.80;;;;;;;3.03;85.41;99319.44;1735331;82;21609;-75
2021/01/08 08:19:12;;;;;;;15.88;10.88;;;;;;;3.01;85.55;99312.20;1764640;81;21313;-75
2021/01/08 08:21:49;;;;;;;16.20;9.38;;;;;;;3.03;85.61;99318.62;1750461;81;37636;-76
2021/01/08 08:24:17;;;;;;;13.60;10.10;;;;;;;3.03;85.62;99318.62;1741766;81;21085;-73
2021/01/08 08:26:46;;;;;;;16.27;9.80;;;;;;;3.05;85.72;99321.38;1723225;82;21003;-74
2021/01/08 08:29:16;;;;;;;16.77;11.03;;;;;;;3.06;85.39;99316.89;1710239;82;21185;-74
2021/01/08 08:31:50;;;;;;;13.98;9.35;;;;;;;3.07;85.40;99307.36;1741205;82;22152;-74
2021/01/08 08:34:30;;;;;;;14.38;10.03;;;;;;;3.08;85.04;99315.64;1722034;82;21101;-75
2021/01/08 08:37:08;;;;;;;15.60;9.33;;;;;;;3.06;84.82;99312.91;1710209;82;21140;-74
2021/01/08 08:39:37;;;;;;;12.75;7.55;;;;;;;3.07;85.00;99309.20;1709645;84;21171;-74
2021/01/08 08:42:05;;;;;;;12.95;9.03;;;;;;;3.06;84.91;99311.06;1724161;82;21117;-75
2021/01/08 08:47:18;;;;;;;13.17;9.03;;;;;;;3.09;84.97;99329.73;1889236;76;22559;-76
2021/01/08 08:49:46;;;;;;;13.50;7.87;;;;;;;3.04;84.80;99330.87;1860217;77;21109;-74
2021/01/08 08:52:27;;;;;;;11.55;8.35;;;;;;;3.01;84.85;99324.16;1822334;78;21200;-75
2021/01/08 08:54:55;;;;;;;12.68;9.55;;;;;;;3.02;84.96;99334.28;1793899;78;20948;-75
2021/01/08 08:57:22;;;;;;;11.35;8.08;;;;;;;3.01;85.02;99328.14;1822378;78;20974;-75
2021/01/08 08:59:50;;;;;;;9.10;6.42;;;;;;;3.00;85.18;99341.62;1811916;78;21038;-75
2021/01/08 09:02:28;;;;;;;13.35;8.83;;;;;;;2.99;85.15;99351.43;1833962;77;21611;-74
2021/01/08 09:05:00;;;;;;;10.55;7.42;;;;;;;2.97;84.85;99345.50;1823837;78;21141;-76
2021/01/08 09:07:50;;;;;;;14.00;8.10;;;;;;;2.93;84.80;99331.02;1826878;78;20945;-73
2021/01/08 09:10:33;;;;;;;13.48;8.43;;;;;;;2.87;84.76;99353.63;1825902;78;21579;-74
2021/01/08 09:13:16;;;;;;;11.73;7.67;;;;;;;2.83;84.78;99339.14;1822480;78;21184;-75
2021/01/08 09:15:51;;;;;;;10.65;7.50;;;;;;;2.76;84.72;99384.28;1783881;79;21137;-73
2021/01/08 09:18:41;;;;;;;12.23;7.80;;;;;;;2.76;84.95;99347.11;1781230;80;21378;-75
2021/01/08 09:21:25;;;;;;;11.90;8.00;;;;;;;2.77;84.96;99336.80;1649549;85;21212;-76
2021/01/08 09:23:54;;;;;;;11.70;7.80;;;;;;;2.78;84.88;99362.30;1681902;85;21198;-73
2021/01/08 09:26:22;;;;;;;10.70;7.47;;;;;;;2.75;84.80;99353.44;1677437;85;21189;-74
2021/01/08 09:31:43;;;;;;;9.60;7.37;;;;;;;2.81;84.66;99350.47;1866784;76;22645;-74
2021/01/08 09:34:11;;;;;;;12.65;8.00;;;;;;;2.77;84.39;99376.63;1821063;77;21058;-76
2021/01/08 09:36:39;;;;;;;13.25;9.38;;;;;;;2.80;84.51;99360.27;1823469;77;22189;-76
2021/01/08 09:39:09;;;;;;;12.50;8.58;;;;;;;2.84;84.74;99358.00;1782257;79;20983;-73
2021/01/08 09:41:38;;;;;;;16.00;9.90;;;;;;;2.85;84.94;99357.80;1820997;78;21006;-75
2021/01/08 09:44:09;;;;;;;12.75;9.38;;;;;;;2.88;85.05;99355.23;1832457;77;20983;-70
2021/01/08 09:47:00;;;;;;;14.15;9.40;;;;;;;2.91;85.33;99357.49;1817528;77;20980;-69
2021/01/08 09:49:50;;;;;;;16.75;11.05;;;;;;;2.95;85.19;99362.69;1851356;77;21198;-77
2021/01/08 09:52:29;;;;;;;11.85;8.55;;;;;;;2.98;85.07;99362.26;1832971;77;21583;-72
2021/01/08 09:54:59;;;;;;;12.60;9.83;;;;;;;3.00;84.92;99352.25;1819194;78;20982;-71
2021/01/08 09:57:35;;;;;;;12.03;7.85;;;;;;;2.96;84.59;99374.44;1841013;77;21200;-73
2021/01/08 10:00:08;;;;;;;12.43;8.98;;;;;;;2.94;84.58;99373.81;1820876;78;21169;-72
2021/01/08 10:02:46;;;;;;;12.73;9.83;;;;;;;2.92;84.47;99357.30;1820209;78;21246;-71
2021/01/08 10:05:32;;;;;;;14.68;10.03;;;;;;;2.90;84.64;99354.02;1821735;77;21114;-74
2021/01/08 10:08:02;;;;;;;12.15;8.90;;;;;;;2.90;84.80;99349.22;1792022;79;21165;-73
2021/01/08 10:10:39;;;;;;;16.75;9.13;;;;;;;2.90;84.98;99355.34;1760791;80;21192;-73
2021/01/08 10:13:22;;;;;;;11.60;8.55;;;;;;;2.93;84.96;99358.08;1821030;77;21094;-74
2021/01/08 10:15:51;;;;;;;;;;;;;;;2.91;84.37;99372.09;1823629;78;21372;-70
2021/01/08 10:18:28;;;;;;;12.28;8.75;;;;;;;2.87;84.21;99361.59;1821138;77;20700;-74
2021/01/08 10:21:05;;;;;;;10.00;7.37;;;;;;;2.83;83.96;99353.74;1816514;78;21532;-71
2021/01/08 10:23:40;;;;;;;12.37;9.58;;;;;;;2.81;83.68;99365.89;1814527;79;21051;-70
2021/01/08 10:26:16;;;;;;;12.78;8.00;;;;;;;2.79;83.75;99361.80;1823368;77;21114;-74
2021/01/08 10:28:52;;;;;;;13.62;10.25;;;;;;;2.79;84.08;99353.31;1820828;78;21325;-67
2021/01/08 10:31:23;;;;;;;13.22;9.35;;;;;;;2.81;84.30;99359.25;1796920;79;21150;-72
2021/01/08 10:33:52;;;;;;;15.13;9.50;;;;;;;2.81;84.32;99355.27;1832621;77;21063;-70
2021/01/08 10:36:19;;;;;;;12.37;7.53;;;;;;;2.83;84.27;99357.73;1820976;77;21543;-72
2021/01/08 10:38:46;;;;;;;14.78;9.23;;;;;;;2.82;83.87;99362.22;1841893;77;21090;-71
2021/01/08 10:41:16;;;;;;;13.35;8.45;;;;;;;2.83;83.99;99359.05;1821985;77;21382;-74
2021/01/08 10:43:45;;;;;;;13.13;8.60;;;;;;;2.82;83.94;99362.22;1820160;78;21188;-72
2021/01/08 10:46:14;;;;;;;10.40;7.95;;;;;;;2.80;83.49;99378.03;1820063;78;21121;-72
2021/01/08 10:48:43;;;;;;;11.28;8.35;;;;;;;2.80;83.55;99372.73;1820823;77;21037;-72
2021/01/08 10:51:11;;;;;;;12.58;9.15;;;;;;;2.82;83.55;99369.36;1849228;77;21086;-71
2021/01/08 10:53:38;;;;;;;10.70;7.97;;;;;;;2.82;83.60;99372.02;1841776;77;22241;-69
2021/01/08 10:56:07;;;;;;;14.73;9.70;;;;;;;2.86;83.65;99393.15;1835404;77;21435;-70
2021/01/08 10:58:36;;;;;;;12.88;7.67;;;;;;;2.87;83.37;99372.22;1792010;79;21214;-74
2021/01/08 11:01:04;;;;;;;11.97;8.65;;;;;;;2.87;83.37;99370.89;1834417;77;21166;-75
2021/01/08 11:03:31;;;;;;;11.55;9.40;;;;;;;2.87;83.37;99373.03;1833621;77;21133;-69
2021/01/08 11:05:59;;;;;;;12.98;8.63;;;;;;;2.88;83.40;99365.86;1853775;77;21372;-73
2021/01/08 11:08:26;;;;;;;11.48;8.58;;;;;;;2.91;83.28;99373.42;1822574;77;21705;-75
2021/01/08 11:10:54;;;;;;;15.08;9.58;;;;;;;2.95;83.29;99377.30;1825107;78;21164;-68
2021/01/08 11:13:22;;;;;;;13.50;8.88;;;;;;;3.00;83.08;99377.48;1839367;77;21133;-75
2021/01/08 11:15:50;;;;;;;12.55;9.38;;;;;;;3.03;82.83;99383.19;1854317;77;21123;-74
2021/01/08 11:18:18;;;;;;;10.78;8.13;;;;;;;3.06;82.68;99380.64;1834286;77;21140;-75
2021/01/08 11:20:49;;;;;;;10.53;8.40;;;;;;;3.05;81.72;99387.80;1813036;79;21050;-75
2021/01/08 11:23:17;;;;;;;12.10;7.85;;;;;;;3.00;81.08;99378.81;1853696;77;21090;-74
2021/01/08 11:25:47;;;;;;;11.05;8.08;;;;;;;2.98;81.17;99368.89;1813344;79;21165;-74
2021/01/08 11:28:14;;;;;;;11.08;7.90;;;;;;;2.98;81.00;99380.34;1853402;77;21129;-76
2021/01/08 11:30:43;;;;;;;13.08;7.90;;;;;;;3.00;80.99;99380.14;1799823;78;21588;-73
2021/01/08 11:33:10;;;;;;;10.98;8.38;;;;;;;3.04;80.98;99406.08;1830117;77;20999;-72
2021/01/08 11:35:38;;;;;;;10.98;7.92;;;;;;;3.03;80.63;99389.83;1819656;78;21643;-72
2021/01/08 11:38:05;;;;;;;11.43;7.95;;;;;;;3.02;80.79;99388.19;1818926;77;21169;-75
2021/01/08 11:40:33;;;;;;;14.43;9.88;;;;;;;3.00;80.91;99381.47;1821722;77;21173;-79
2021/01/08 11:43:03;;;;;;;10.00;8.05;;;;;;;2.97;81.26;99376.05;1819701;78;21486;-76
2021/01/08 11:45:31;;;;;;;13.88;9.90;;;;;;;3.01;81.46;99388.42;1844057;77;20990;-76
2021/01/08 11:48:00;;;;;;;17.07;9.60;;;;;;;3.06;81.54;99379.31;1795150;79;21189;-75
2021/01/08 11:50:29;;;;;;;15.68;10.23;;;;;;;3.10;81.62;99378.38;1820953;77;21784;-76
2021/01/08 11:52:59;;;;;;;15.30;10.30;;;;;;;3.12;81.51;99382.44;1845076;77;21149;-74
2021/01/08 11:55:27;;;;;;;14.58;8.48;;;;;;;3.12;81.48;99389.63;1788765;79;21382;-80
2021/01/08 11:57:55;;;;;;;17.50;11.48;;;;;;;3.12;81.20;99389.09;1829285;77;21566;-76
2021/01/08 12:00:23;;;;;;;14.68;9.78;;;;;;;3.12;81.21;99397.05;1829042;77;20992;-74